Time;durP1;ratioP1;P1;durP2;ratioP2;P2;SDS_P1;SDS_P2;PMS_P1;PMS_P2;Temp;Humidity;BMP_temperature;BMP_pressure;BME280_temperature;BME280_humidity;BME280_pressure;Samples;Min_cycle;Max_cycle;Signal;HPM_P1;HPM_P2
2023/01/01 00:01:11;;;;;;;15.75;8.77;;;;;;;15.01;59.27;100217.59;4944391;28;97403;-83
2023/01/01 00:03:37;;;;;;;12.05;7.35;;;;;;;15.00;58.95;100217.66;4914516;28;96800;-83
2023/01/01 00:06:07;;;;;;;8.50;6.30;;;;;;;15.12;58.74;100220.47;4919796;28;100259;-83
2023/01/01 00:08:34;;;;;;;7.47;4.75;;;;;;;15.16;58.62;100227.31;4924693;28;101031;-83
2023/01/01 00:11:01;;;;;;;5.25;3.60;;;;;;;15.26;58.07;100237.38;4913503;28;96899;-82
2023/01/01 00:13:26;;;;;;;5.05;2.85;;;;;;;15.15;57.91;100222.97;4915421;28;96886;-83
2023/01/01 00:15:52;;;;;;;3.97;2.65;;;;;;;15.29;57.68;100234.56;4946536;28;101858;-83
2023/01/01 00:18:18;;;;;;;3.40;2.50;;;;;;;15.30;57.55;100229.22;4936893;28;98143;-83
2023/01/01 00:20:43;;;;;;;4.10;2.33;;;;;;;15.38;57.69;100236.72;4959059;28;97332;-83
2023/01/01 00:23:09;;;;;;;3.55;2.35;;;;;;;15.33;57.31;100220.22;4912045;28;97060;-83
2023/01/01 00:25:34;;;;;;;2.92;2.45;;;;;;;15.41;57.24;100228.59;4942117;28;101546;-82
2023/01/01 00:28:00;;;;;;;3.92;2.53;;;;;;;15.44;57.14;100227.59;4919561;28;101164;-83
2023/01/01 00:30:26;;;;;;;3.80;2.50;;;;;;;15.42;57.28;100222.41;4929950;28;97469;-83
2023/01/01 00:32:51;;;;;;;5.80;2.90;;;;;;;15.47;57.06;100232.69;4946039;28;96985;-83
2023/01/01 00:35:17;;;;;;;3.33;2.33;;;;;;;15.47;56.92;100230.91;4930061;28;100846;-83
2023/01/01 00:37:42;;;;;;;2.90;2.38;;;;;;;15.29;57.09;100208.13;4923790;28;101808;-83
2023/01/01 00:40:09;;;;;;;3.28;2.30;;;;;;;15.48;57.11;100235.28;4908777;28;97233;-82
2023/01/01 00:42:34;;;;;;;3.38;2.45;;;;;;;15.38;56.87;100204.97;4940215;28;97378;-83
2023/01/01 00:45:00;;;;;;;3.80;2.45;;;;;;;15.40;56.76;100224.25;4913879;28;101842;-82
2023/01/01 00:47:25;;;;;;;5.53;2.53;;;;;;;15.53;56.56;100251.75;4945969;28;101651;-84
2023/01/01 00:49:51;;;;;;;7.10;3.15;;;;;;;15.51;56.77;100248.34;4939533;28;97454;-83
2023/01/01 00:52:16;;;;;;;3.08;2.40;;;;;;;15.50;56.31;100245.75;4961880;28;97198;-84
2023/01/01 00:54:42;;;;;;;5.07;2.80;;;;;;;15.57;56.63;100252.44;4956471;28;98006;-83
2023/01/01 00:57:07;;;;;;;4.30;2.75;;;;;;;15.59;56.45;100261.09;4938021;28;101879;-83
2023/01/01 00:59:33;;;;;;;5.28;2.97;;;;;;;15.54;56.42;100258.75;4926392;28;97215;-83
2023/01/01 01:01:59;;;;;;;5.63;2.63;;;;;;;15.52;56.30;100251.81;4913508;28;97106;-84
2023/01/01 01:04:24;;;;;;;6.55;2.80;;;;;;;15.57;56.36;100260.38;4902724;28;100220;-83
2023/01/01 01:06:50;;;;;;;5.93;3.53;;;;;;;15.57;56.06;100252.44;4917877;28;97056;-83
2023/01/01 01:09:15;;;;;;;6.97;3.20;;;;;;;15.52;55.94;100259.75;4953924;28;97180;-83
2023/01/01 01:11:41;;;;;;;7.97;2.90;;;;;;;15.48;56.13;100250.28;4928329;28;96946;-83
2023/01/01 01:14:07;;;;;;;7.05;3.30;;;;;;;15.49;56.29;100258.13;4929611;28;100505;-83
2023/01/01 01:16:34;;;;;;;11.32;3.63;;;;;;;15.60;55.72;100271.63;4924085;28;96768;-83
2023/01/01 01:19:01;;;;;;;4.75;3.08;;;;;;;15.56;55.73;100254.22;4943813;28;97530;-83
2023/01/01 01:21:29;;;;;;;7.10;3.08;;;;;;;15.59;55.91;100269.94;4913682;28;96824;-83
2023/01/01 01:23:57;;;;;;;7.18;2.83;;;;;;;15.60;55.64;100268.97;4912776;28;98691;-83
2023/01/01 01:26:25;;;;;;;4.43;2.80;;;;;;;15.43;56.00;100254.97;4919768;28;101850;-83
2023/01/01 01:28:52;;;;;;;2.85;2.15;;;;;;;15.58;56.11;100283.22;4897645;28;96883;-84
2023/01/01 01:31:19;;;;;;;2.92;2.20;;;;;;;15.54;56.17;100271.97;4929418;28;96950;-83
2023/01/01 01:33:46;;;;;;;4.07;2.50;;;;;;;15.59;55.97;100269.03;4915232;28;101600;-82
2023/01/01 01:36:12;;;;;;;4.30;2.40;;;;;;;15.57;55.78;100269.16;4929991;28;101184;-83
2023/01/01 01:38:37;;;;;;;3.38;2.65;;;;;;;15.61;56.09;100275.97;4913030;28;97231;-83
2023/01/01 01:41:03;;;;;;;4.45;2.75;;;;;;;15.51;56.04;100269.50;4912640;28;97251;-83
2023/01/01 01:43:32;;;;;;;2.65;2.17;;;;;;;15.52;56.13;100272.97;4920720;28;101386;-82
2023/01/01 01:46:01;;;;;;;3.05;2.42;;;;;;;15.68;56.05;100292.41;4914005;28;101515;-83
2023/01/01 01:48:27;;;;;;;3.33;2.30;;;;;;;15.61;55.81;100269.81;4935124;28;96835;-83
2023/01/01 01:50:55;;;;;;;3.78;2.85;;;;;;;15.64;55.67;100285.53;4927143;28;97303;-82
2023/01/01 01:53:23;;;;;;;4.97;2.60;;;;;;;15.52;55.79;100278.28;4909951;28;101718;-82
2023/01/01 01:55:55;;;;;;;3.90;2.50;;;;;;;15.61;55.99;100298.94;4956039;28;98431;-83
2023/01/01 01:58:21;;;;;;;4.50;2.60;;;;;;;15.54;56.17;100279.91;4910125;28;96906;-83
2023/01/01 02:00:47;;;;;;;4.22;2.60;;;;;;;15.56;56.07;100293.91;4924977;28;97208;-83
2023/01/01 02:03:20;;;;;;;3.38;2.63;;;;;;;15.60;55.79;100295.44;4915102;28;101769;-83
2023/01/01 02:05:48;;;;;;;3.28;2.28;;;;;;;15.62;56.03;100293.56;4896038;28;101843;-84
2023/01/01 02:08:14;;;;;;;5.93;2.85;;;;;;;15.59;56.07;100285.81;4924560;28;97373;-83
2023/01/01 02:10:40;;;;;;;2.63;2.17;;;;;;;15.45;55.83;100272.47;4924969;28;97497;-83
2023/01/01 02:13:06;;;;;;;2.85;2.03;;;;;;;15.60;55.94;100294.59;4914778;28;98525;-83
2023/01/01 02:15:39;;;;;;;2.55;1.85;;;;;;;15.62;55.37;100290.06;4942526;28;101156;-83
2023/01/01 02:18:13;;;;;;;2.92;2.00;;;;;;;15.60;55.38;100284.84;4944566;28;96883;-83
2023/01/01 02:20:45;;;;;;;3.00;2.28;;;;;;;15.66;55.58;100304.81;4924215;28;97074;-83
2023/01/01 02:23:10;;;;;;;;;;;;;;;15.59;55.48;100301.69;4920868;28;97981;-82
2023/01/01 02:25:56;;;;;;;3.75;1.92;;;;;;;15.59;55.51;100299.03;4933602;28;100929;-83
2023/01/01 02:28:52;;;;;;;3.22;1.80;;;;;;;15.65;55.32;100299.59;4943488;28;97128;-82
2023/01/01 02:31:22;;;;;;;2.95;2.15;;;;;;;15.63;55.45;100289.97;4925169;28;96953;-83
2023/01/01 02:33:49;;;;;;;2.55;1.83;;;;;;;15.73;55.53;100308.00;4942796;28;98658;-82
2023/01/01 02:36:14;;;;;;;3.58;2.30;;;;;;;15.68;55.45;100294.16;4928095;28;98335;-83
2023/01/01 02:38:43;;;;;;;3.35;2.30;;;;;;;15.73;55.39;100298.28;4925819;28;97337;-83
2023/01/01 02:41:13;;;;;;;3.70;2.15;;;;;;;15.63;55.58;100281.19;4944793;28;97558;-83
2023/01/01 02:43:39;;;;;;;3.17;2.25;;;;;;;15.77;55.24;100298.97;4910274;28;97601;-83
2023/01/01 02:46:07;;;;;;;2.47;1.75;;;;;;;15.83;54.70;100293.34;4942229;28;101336;-83
2023/01/01 02:48:47;;;;;;;2.55;2.00;;;;;;;15.82;54.65;100299.56;4928068;28;96794;-83
2023/01/01 02:51:13;;;;;;;2.88;1.58;;;;;;;15.86;54.84;100297.63;4934078;28;96931;-82
2023/01/01 02:53:45;;;;;;;2.55;1.83;;;;;;;15.89;54.48;100311.53;4917906;28;101661;-83
2023/01/01 02:56:21;;;;;;;2.85;2.20;;;;;;;15.88;54.22;100301.00;4942127;28;102181;-83
2023/01/01 03:01:52;;;;;;;3.08;2.20;;;;;;;15.92;54.48;100313.16;4926337;28;97313;-83
2023/01/01 03:04:22;;;;;;;3.60;2.13;;;;;;;16.01;54.33;100305.53;4917084;28;101378;-84
2023/01/01 03:06:55;;;;;;;3.17;2.05;;;;;;;16.01;54.19;100296.72;4931770;28;100911;-82
2023/01/01 03:09:37;;;;;;;5.20;2.35;;;;;;;15.95;54.35;100313.81;4910778;28;97396;-83
2023/01/01 03:12:24;;;;;;;4.63;2.33;;;;;;;15.96;54.10;100306.72;4933636;28;96884;-85
2023/01/01 03:14:57;;;;;;;3.20;2.63;;;;;;;15.93;53.93;100294.50;4944603;28;101718;-83
2023/01/01 03:17:32;;;;;;;3.03;2.13;;;;;;;15.88;54.21;100290.41;4954530;28;97888;-83
2023/01/01 03:20:00;;;;;;;4.50;2.50;;;;;;;16.05;53.64;100309.69;4947870;28;96808;-83
2023/01/01 03:22:32;;;;;;;6.30;2.60;;;;;;;15.93;53.88;100307.75;4929804;28;97314;-83
2023/01/01 03:25:04;;;;;;;3.28;2.25;;;;;;;15.94;54.15;100304.19;4939751;28;101958;-83
2023/01/01 03:27:38;;;;;;;4.50;3.10;;;;;;;15.87;53.91;100289.56;4947394;28;101560;-83
2023/01/01 03:30:07;;;;;;;3.95;2.50;;;;;;;15.94;53.97;100320.06;4913914;28;96799;-83
2023/01/01 03:33:02;;;;;;;3.45;2.53;;;;;;;15.91;54.00;100314.06;4927820;28;97491;-85
2023/01/01 03:35:36;;;;;;;5.15;2.88;;;;;;;15.97;53.84;100329.59;4914311;28;101160;-83
2023/01/01 03:38:03;;;;;;;5.18;3.05;;;;;;;15.89;53.92;100319.47;4936018;28;97536;-83
2023/01/01 03:40:30;;;;;;;3.72;2.53;;;;;;;15.95;53.78;100332.34;4931698;28;97299;-82
2023/01/01 03:43:06;;;;;;;2.88;2.25;;;;;;;15.93;53.53;100325.44;4919021;28;96986;-82
2023/01/01 03:45:38;;;;;;;5.22;2.70;;;;;;;15.86;53.77;100313.50;4941467;28;98207;-85
2023/01/01 03:48:04;;;;;;;3.95;2.67;;;;;;;15.74;53.73;100302.66;4917592;28;101630;-85
2023/01/01 03:50:44;;;;;;;4.65;2.40;;;;;;;15.93;53.42;100320.97;4942223;28;97068;-82
2023/01/01 03:53:23;;;;;;;3.85;2.42;;;;;;;16.01;53.35;100339.94;4921911;28;96993;-82
2023/01/01 03:56:14;;;;;;;3.35;2.30;;;;;;;15.98;53.47;100342.75;4916777;28;101282;-82
2023/01/01 03:58:45;;;;;;;3.75;2.30;;;;;;;15.98;53.38;100348.06;4930701;28;97397;-82
2023/01/01 04:02:00;;;;;;;4.38;2.60;;;;;;;15.90;53.62;100346.78;4911468;28;97035;-82
2023/01/01 04:04:25;;;;;;;3.55;2.35;;;;;;;15.90;53.72;100350.28;4912092;28;96892;-82
2023/01/01 04:06:52;;;;;;;4.18;2.50;;;;;;;15.86;53.81;100353.19;4931170;28;97651;-82
2023/01/01 04:09:21;;;;;;;3.47;2.47;;;;;;;15.71;53.72;100325.78;4930088;28;97952;-82
2023/01/01 04:12:03;;;;;;;5.53;3.33;;;;;;;15.89;53.77;100355.66;4912822;28;96768;-82
2023/01/01 04:14:36;;;;;;;;;;;;;;;15.77;53.81;100351.91;4928644;28;97181;-82
2023/01/01 04:17:03;;;;;;;5.20;2.85;;;;;;;15.83;53.43;100352.41;4943176;28;105021;-82
2023/01/01 04:19:29;;;;;;;5.47;2.60;;;;;;;15.82;53.35;100358.66;4912139;28;100752;-82
2023/01/01 04:21:55;;;;;;;8.45;2.88;;;;;;;15.79;53.31;100350.84;4891138;28;97227;-82
2023/01/01 04:24:22;;;;;;;3.35;2.35;;;;;;;15.79;52.79;100350.00;4921400;28;96805;-82
2023/01/01 04:26:49;;;;;;;4.47;2.58;;;;;;;15.83;52.68;100356.84;4925181;28;98008;-82
2023/01/01 04:29:14;;;;;;;4.68;2.72;;;;;;;15.87;52.58;100365.47;4922594;28;101269;-81
2023/01/01 04:31:40;;;;;;;6.18;2.80;;;;;;;15.75;52.35;100348.47;4910881;28;96818;-82
2023/01/01 04:34:06;;;;;;;3.97;2.58;;;;;;;15.80;52.59;100360.53;4911745;28;96837;-82
2023/01/01 04:36:32;;;;;;;3.22;2.60;;;;;;;15.78;52.54;100348.31;4944536;28;101093;-82
2023/01/01 04:38:57;;;;;;;3.92;3.03;;;;;;;15.81;52.40;100354.28;4926377;28;98081;-82
2023/01/01 04:41:23;;;;;;;4.07;2.85;;;;;;;15.71;52.32;100341.66;4927320;28;97610;-82
2023/01/01 04:43:51;;;;;;;3.33;2.20;;;;;;;15.83;52.27;100356.84;4947284;28;97476;-82
2023/01/01 04:46:19;;;;;;;3.90;2.22;;;;;;;15.68;52.37;100336.50;4903528;28;97703;-82
2023/01/01 04:48:45;;;;;;;3.50;2.30;;;;;;;15.75;52.38;100375.78;4927437;28;101125;-82
2023/01/01 04:51:12;;;;;;;3.72;2.50;;;;;;;15.77;52.39;100375.72;4920913;28;96778;-82
2023/01/01 04:53:38;;;;;;;6.28;2.90;;;;;;;15.63;52.27;100357.91;4942558;28;96954;-83
2023/01/01 04:56:08;;;;;;;4.28;2.60;;;;;;;15.75;52.38;100381.09;4909916;28;101250;-81
2023/01/01 04:58:36;;;;;;;6.03;2.30;;;;;;;15.74;52.24;100371.44;4926548;28;97898;-82
2023/01/01 05:01:02;;;;;;;3.08;2.25;;;;;;;15.75;52.51;100389.03;4930009;28;96854;-82
2023/01/01 05:03:28;;;;;;;4.47;2.38;;;;;;;15.80;51.93;100381.69;4911023;28;96888;-82
2023/01/01 05:06:07;;;;;;;5.60;2.35;;;;;;;15.76;51.80;100374.84;4911494;28;98080;-83
2023/01/01 05:08:36;;;;;;;3.25;2.65;;;;;;;15.78;51.92;100385.38;4949487;28;97867;-82
2023/01/01 05:11:04;;;;;;;2.65;2.08;;;;;;;15.78;51.73;100374.78;4927060;28;96934;-83
2023/01/01 05:13:39;;;;;;;3.42;2.42;;;;;;;15.76;52.09;100389.88;4920096;28;96694;-82
2023/01/01 05:16:05;;;;;;;3.58;2.40;;;;;;;15.72;51.91;100386.56;4923611;28;102056;-82
2023/01/01 05:18:31;;;;;;;3.80;2.55;;;;;;;15.62;51.94;100364.16;4945503;28;97836;-83
2023/01/01 05:21:05;;;;;;;2.95;2.28;;;;;;;15.70;51.69;100388.41;4883672;28;97270;-82
2023/01/01 05:23:31;;;;;;;3.92;2.55;;;;;;;15.65;52.04;100379.88;4916062;28;97023;-83
2023/01/01 05:25:57;;;;;;;3.78;2.70;;;;;;;15.73;51.90;100392.69;4944554;28;98530;-82
2023/01/01 05:28:23;;;;;;;4.13;2.38;;;;;;;15.73;51.73;100388.25;4926448;28;99756;-83
2023/01/01 05:30:50;;;;;;;4.43;2.50;;;;;;;15.71;51.85;100400.72;4927464;28;97715;-82
2023/01/01 05:33:16;;;;;;;3.72;2.47;;;;;;;15.69;52.04;100393.81;4928923;28;97488;-83
2023/01/01 05:35:41;;;;;;;3.50;2.58;;;;;;;15.75;51.83;100394.31;4928059;28;100633;-84
2023/01/01 05:38:07;;;;;;;2.67;2.17;;;;;;;15.65;52.01;100389.56;4943735;28;101089;-82
2023/01/01 05:40:32;;;;;;;4.32;2.67;;;;;;;15.59;52.07;100389.00;4941428;28;97010;-83
2023/01/01 05:42:58;;;;;;;3.58;2.30;;;;;;;15.68;52.04;100392.97;4951076;28;97216;-82
2023/01/01 05:45:23;;;;;;;3.17;2.28;;;;;;;15.70;52.24;100412.22;4933524;28;101098;-82
2023/01/01 05:47:49;;;;;;;5.25;2.50;;;;;;;15.68;52.16;100402.66;4930751;28;97835;-82
2023/01/01 05:50:15;;;;;;;5.10;2.75;;;;;;;15.73;52.48;100404.13;4946700;28;96836;-82
2023/01/01 05:52:40;;;;;;;6.85;2.80;;;;;;;15.55;52.26;100376.00;4919581;28;96787;-82
2023/01/01 05:55:06;;;;;;;3.33;2.20;;;;;;;15.65;52.44;100393.09;4927786;28;101351;-84
2023/01/01 05:57:32;;;;;;;3.35;2.35;;;;;;;15.72;52.37;100397.13;4904700;28;101423;-82
2023/01/01 05:59:57;;;;;;;3.42;2.50;;;;;;;15.64;52.55;100391.38;4923895;28;98189;-82
2023/01/01 06:02:23;;;;;;;4.45;2.47;;;;;;;15.65;52.57;100392.22;4941438;28;97193;-82
2023/01/01 06:04:48;;;;;;;4.05;2.35;;;;;;;15.67;52.33;100404.44;4954589;28;98133;-82
2023/01/01 06:07:14;;;;;;;2.60;1.95;;;;;;;15.42;52.53;100373.16;4925271;28;97859;-84
2023/01/01 06:09:39;;;;;;;3.47;2.40;;;;;;;15.40;52.70;100370.59;4933469;28;97209;-82
2023/01/01 06:12:05;;;;;;;3.42;2.35;;;;;;;15.54;52.75;100392.81;4943417;28;97334;-82
2023/01/01 06:14:31;;;;;;;6.72;2.85;;;;;;;15.51;52.79;100401.75;4926773;28;101518;-82
2023/01/01 06:16:56;;;;;;;5.35;2.50;;;;;;;15.50;53.14;100402.69;4927568;28;101757;-82
2023/01/01 06:19:22;;;;;;;6.45;2.63;;;;;;;15.55;52.86;100403.28;4911880;28;97086;-85
2023/01/01 06:21:48;;;;;;;4.03;2.30;;;;;;;15.47;52.57;100402.00;4910046;28;97566;-84
2023/01/01 06:24:14;;;;;;;5.75;2.42;;;;;;;15.48;52.58;100393.16;4936462;28;98483;-81
2023/01/01 06:26:40;;;;;;;3.38;2.45;;;;;;;15.56;52.41;100398.84;4920487;28;101172;-82
2023/01/01 06:29:05;;;;;;;3.40;2.30;;;;;;;15.50;52.72;100404.47;4934773;28;97282;-82
2023/01/01 06:31:31;;;;;;;3.85;2.38;;;;;;;15.38;52.65;100379.53;4909779;28;96972;-82
2023/01/01 06:33:57;;;;;;;2.88;2.15;;;;;;;15.40;52.45;100386.44;4914881;28;100451;-82
2023/01/01 06:36:24;;;;;;;5.13;2.22;;;;;;;15.46;52.69;100398.50;4905919;28;101685;-83
2023/01/01 06:38:52;;;;;;;3.65;2.22;;;;;;;15.47;52.57;100405.50;4930502;28;97157;-85
2023/01/01 06:41:19;;;;;;;4.15;2.58;;;;;;;15.45;52.61;100395.94;4914114;28;96993;-84
2023/01/01 06:43:45;;;;;;;4.32;2.50;;;;;;;15.43;52.54;100401.31;4910413;28;101789;-82
2023/01/01 06:46:30;;;;;;;4.57;2.78;;;;;;;15.43;52.64;100406.59;4917181;28;101501;-83
2023/01/01 06:48:58;;;;;;;3.95;2.40;;;;;;;15.48;52.84;100406.38;4911736;28;97332;-82
2023/01/01 06:51:26;;;;;;;6.55;2.40;;;;;;;15.34;52.69;100384.13;4930326;28;97010;-82
2023/01/01 06:53:52;;;;;;;5.45;2.55;;;;;;;15.32;52.89;100388.63;4925212;28;100269;-83
2023/01/01 06:56:18;;;;;;;6.63;2.35;;;;;;;15.23;52.87;100386.47;4914365;28;101519;-83
2023/01/01 06:58:44;;;;;;;3.20;2.40;;;;;;;15.33;53.01;100406.25;4934106;28;97151;-84
2023/01/01 07:01:14;;;;;;;5.13;2.42;;;;;;;15.34;52.88;100409.72;4911533;28;97546;-83
2023/01/01 07:03:42;;;;;;;5.07;2.63;;;;;;;15.34;52.64;100423.81;4916939;28;97644;-84
2023/01/01 07:06:08;;;;;;;4.15;2.45;;;;;;;15.36;52.92;100416.66;4929455;28;101173;-83
2023/01/01 07:08:35;;;;;;;6.03;2.22;;;;;;;15.34;52.82;100423.81;4914372;28;97479;-83
2023/01/01 07:11:01;;;;;;;4.07;2.63;;;;;;;15.31;52.83;100434.53;4897708;28;97083;-84
2023/01/01 07:13:27;;;;;;;6.15;2.53;;;;;;;15.23;52.85;100418.22;4909094;28;101681;-85
2023/01/01 07:15:53;;;;;;;3.75;2.40;;;;;;;15.34;53.05;100437.03;4923856;28;97506;-83
2023/01/01 07:18:20;;;;;;;3.80;2.67;;;;;;;15.38;52.98;100435.06;4912294;28;96950;-84
2023/01/01 07:21:05;;;;;;;3.92;2.30;;;;;;;15.29;53.21;100441.69;4879413;28;97012;-83
2023/01/01 07:23:33;;;;;;;6.43;2.83;;;;;;;15.33;53.02;100445.03;4911984;28;98058;-84
2023/01/01 07:25:59;;;;;;;5.10;3.03;;;;;;;15.39;53.14;100452.66;4910487;28;101106;-84
2023/01/01 07:28:25;;;;;;;5.05;2.70;;;;;;;15.39;53.22;100450.03;4927700;28;97122;-84
2023/01/01 07:30:52;;;;;;;3.17;2.40;;;;;;;15.29;53.20;100438.19;4899850;28;96987;-87
2023/01/01 07:33:20;;;;;;;4.95;2.75;;;;;;;15.27;53.02;100437.41;4927524;28;101194;-84
2023/01/01 07:35:46;;;;;;;3.97;2.25;;;;;;;15.44;53.01;100460.34;4927539;28;101532;-86
2023/01/01 07:38:12;;;;;;;4.82;3.08;;;;;;;15.43;53.04;100466.59;4931843;28;96843;-84
2023/01/01 07:40:38;;;;;;;4.78;2.50;;;;;;;15.32;53.07;100435.41;4915847;28;96963;-85
2023/01/01 07:43:04;;;;;;;9.32;3.03;;;;;;;15.48;52.80;100446.06;4931310;28;101388;-85
2023/01/01 07:45:30;;;;;;;4.30;2.70;;;;;;;15.40;52.79;100443.78;4940254;28;99623;-84
2023/01/01 07:47:57;;;;;;;3.90;2.50;;;;;;;15.42;52.65;100441.94;4916750;28;97335;-84
2023/01/01 07:50:24;;;;;;;7.13;2.40;;;;;;;15.54;52.79;100456.31;4917640;28;96987;-86
2023/01/01 07:52:50;;;;;;;3.97;2.47;;;;;;;15.61;52.44;100455.88;4893912;28;100163;-84
2023/01/01 07:55:18;;;;;;;4.25;2.53;;;;;;;15.69;52.54;100465.25;4936239;28;97980;-85
2023/01/01 07:57:44;;;;;;;4.82;2.63;;;;;;;15.72;52.13;100452.72;4910079;28;96987;-84
2023/01/01 08:00:11;;;;;;;3.55;2.40;;;;;;;15.89;52.14;100457.09;4893119;28;97350;-84
2023/01/01 08:02:42;;;;;;;3.22;2.38;;;;;;;16.00;51.69;100465.31;4907479;28;101469;-82
2023/01/01 08:05:08;;;;;;;5.15;2.70;;;;;;;16.04;51.42;100463.34;4938369;28;99768;-86
2023/01/01 08:07:34;;;;;;;5.97;2.65;;;;;;;16.17;51.16;100468.81;4920272;28;97285;-82
2023/01/01 08:10:00;;;;;;;4.13;2.25;;;;;;;16.27;50.95;100459.44;4911273;28;96988;-83
2023/01/01 08:12:26;;;;;;;5.35;2.35;;;;;;;16.42;50.73;100468.34;4938847;28;98201;-83
2023/01/01 08:14:51;;;;;;;3.80;2.28;;;;;;;16.62;50.30;100460.13;4890526;28;100325;-83
2023/01/01 08:17:17;;;;;;;6.70;2.25;;;;;;;16.73;50.13;100460.38;4910505;28;97129;-83
2023/01/01 08:19:43;;;;;;;4.05;2.38;;;;;;;16.97;49.14;100454.59;4962026;28;97800;-83
2023/01/01 08:22:09;;;;;;;5.32;2.72;;;;;;;17.14;48.89;100454.47;4913108;28;97547;-83
2023/01/01 08:24:35;;;;;;;3.72;2.38;;;;;;;17.27;48.78;100451.09;4945905;28;97437;-83
2023/01/01 08:27:01;;;;;;;4.28;2.42;;;;;;;17.34;48.58;100447.97;4926033;28;96809;-83
2023/01/01 08:29:26;;;;;;;4.57;2.60;;;;;;;17.47;48.02;100444.59;4915263;28;97214;-83
2023/01/01 08:31:52;;;;;;;3.42;2.20;;;;;;;17.70;47.86;100459.09;4935044;28;97594;-83
2023/01/01 08:34:18;;;;;;;4.10;2.65;;;;;;;17.74;47.08;100458.81;4918831;28;101151;-83
2023/01/01 08:36:43;;;;;;;6.05;2.80;;;;;;;17.54;46.23;100441.47;4945307;28;98435;-83
2023/01/01 08:39:09;;;;;;;3.35;2.08;;;;;;;17.47;47.06;100455.19;4932017;28;97503;-83
2023/01/01 08:41:34;;;;;;;4.60;2.15;;;;;;;17.51;46.83;100456.69;4911830;28;98567;-84
2023/01/01 08:44:00;;;;;;;4.28;2.38;;;;;;;17.56;46.32;100467.91;4942534;28;97846;-82
2023/01/01 08:46:26;;;;;;;3.92;1.90;;;;;;;17.58;46.23;100442.13;4912585;28;97207;-83
2023/01/01 08:48:52;;;;;;;4.65;2.08;;;;;;;17.80;45.68;100473.53;4914669;28;98008;-83
2023/01/01 08:51:17;;;;;;;5.40;2.30;;;;;;;17.99;45.62;100479.41;4944913;28;98099;-83
2023/01/01 08:53:43;;;;;;;3.38;1.98;;;;;;;18.05;45.51;100480.84;4929798;28;100869;-83
2023/01/01 08:56:10;;;;;;;4.57;2.22;;;;;;;17.98;45.68;100479.53;4941184;28;97891;-84
2023/01/01 08:58:37;;;;;;;4.32;2.75;;;;;;;18.15;45.64;100494.38;4945707;28;97362;-82
2023/01/01 09:01:04;;;;;;;4.38;2.33;;;;;;;18.18;46.05;100503.03;4924656;28;101314;-81
2023/01/01 09:03:29;;;;;;;2.55;2.00;;;;;;;18.26;46.05;100495.41;4926420;28;101411;-82
2023/01/01 09:05:55;;;;;;;4.32;3.03;;;;;;;18.31;46.01;100495.13;4929116;28;97198;-82
2023/01/01 09:08:21;;;;;;;3.58;2.22;;;;;;;18.31;45.98;100503.97;4910571;28;97515;-82
2023/01/01 09:10:48;;;;;;;6.65;2.38;;;;;;;18.30;45.70;100504.91;4945387;28;100917;-82
2023/01/01 09:13:15;;;;;;;4.70;2.58;;;;;;;18.43;45.62;100512.97;4907419;28;98045;-82
2023/01/01 09:15:42;;;;;;;4.35;2.55;;;;;;;18.45;45.63;100494.28;4913697;28;96953;-83
2023/01/01 09:18:08;;;;;;;4.63;2.45;;;;;;;18.65;45.38;100501.81;4925963;28;97047;-81
2023/01/01 09:20:34;;;;;;;4.25;2.20;;;;;;;18.76;45.24;100503.78;4943357;28;97935;-81
2023/01/01 09:23:00;;;;;;;4.88;2.33;;;;;;;18.99;44.98;100504.94;4911246;28;100948;-81
2023/01/01 09:25:25;;;;;;;5.60;2.40;;;;;;;19.11;45.02;100497.94;4928820;28;97226;-81
2023/01/01 09:28:01;;;;;;;8.18;2.67;;;;;;;19.12;44.94;100487.22;4899839;28;97317;-81
2023/01/01 09:30:27;;;;;;;4.65;2.40;;;;;;;19.06;45.15;100487.63;4928033;28;102035;-82
2023/01/01 09:32:52;;;;;;;5.28;2.63;;;;;;;19.08;45.44;100490.16;4900972;28;101315;-82
2023/01/01 09:35:18;;;;;;;4.03;2.42;;;;;;;18.97;45.63;100489.09;4907310;28;97430;-82
2023/01/01 09:37:44;;;;;;;4.80;2.60;;;;;;;18.97;46.11;100496.22;4943439;28;97658;-83
2023/01/01 09:40:50;;;;;;;4.45;2.58;;;;;;;18.99;46.10;100487.19;4911240;28;98509;-81
2023/01/01 09:43:24;;;;;;;7.53;2.95;;;;;;;18.97;46.28;100489.09;4924516;28;98211;-82
2023/01/01 09:46:01;;;;;;;5.30;2.55;;;;;;;18.86;46.67;100486.28;4920142;28;96881;-81
2023/01/01 09:48:29;;;;;;;5.35;2.40;;;;;;;18.92;46.68;100485.03;4939639;28;97535;-81
2023/01/01 09:50:55;;;;;;;5.38;3.20;;;;;;;18.87;47.18;100480.00;4920500;28;97748;-82
2023/01/01 09:53:36;;;;;;;3.58;2.70;;;;;;;18.79;46.91;100477.00;4938891;28;101406;-82
2023/01/01 09:56:03;;;;;;;4.00;2.65;;;;;;;18.87;46.91;100460.53;4924950;28;97089;-81
2023/01/01 09:58:36;;;;;;;5.45;2.55;;;;;;;18.98;46.37;100463.34;4908872;28;97068;-81
2023/01/01 10:01:11;;;;;;;4.05;2.40;;;;;;;19.12;45.22;100460.59;4907261;28;101518;-82
2023/01/01 10:03:53;;;;;;;3.88;2.10;;;;;;;19.19;44.93;100464.53;4917812;28;101188;-81
2023/01/01 10:06:26;;;;;;;4.40;2.17;;;;;;;19.13;44.72;100464.13;4899211;28;97395;-81
2023/01/01 10:09:08;;;;;;;4.80;2.22;;;;;;;19.13;44.60;100467.63;4921687;28;96878;-81
2023/01/01 10:11:50;;;;;;;5.10;2.42;;;;;;;19.09;45.16;100476.78;4936910;28;101463;-81
2023/01/01 10:14:31;;;;;;;3.38;2.10;;;;;;;19.02;44.71;100461.31;4931259;28;101546;-82
2023/01/01 10:16:58;;;;;;;3.03;2.40;;;;;;;19.20;44.43;100486.72;4920172;28;98000;-81
2023/01/01 10:19:30;;;;;;;5.18;2.63;;;;;;;19.18;44.74;100492.13;4915516;28;96840;-81
2023/01/01 10:22:06;;;;;;;4.07;2.28;;;;;;;19.29;44.63;100490.56;4904497;28;101846;-82
2023/01/01 10:24:37;;;;;;;10.32;3.03;;;;;;;19.39;44.47;100496.94;4907584;28;101556;-80
2023/01/01 10:27:04;;;;;;;4.35;2.17;;;;;;;19.38;44.14;100485.44;4930200;28;96773;-83
2023/01/01 10:29:40;;;;;;;3.90;2.05;;;;;;;19.63;44.21;100502.41;4917949;28;97791;-81
2023/01/01 10:32:29;;;;;;;3.25;2.30;;;;;;;19.60;43.66;100497.28;4931500;28;101715;-81
2023/01/01 10:34:55;;;;;;;4.03;2.70;;;;;;;19.44;44.06;100500.16;4932575;28;103364;-81
2023/01/01 10:37:21;;;;;;;6.60;2.55;;;;;;;19.31;44.39;100508.09;4914712;28;97204;-84
2023/01/01 10:39:46;;;;;;;3.75;2.60;;;;;;;19.22;44.75;100508.72;4899052;28;97659;-82
2023/01/01 10:42:13;;;;;;;4.22;2.80;;;;;;;19.24;44.67;100509.47;4899724;28;101333;-85
2023/01/01 10:44:39;;;;;;;4.07;2.47;;;;;;;19.25;44.49;100495.22;4915838;28;101069;-85
2023/01/01 10:47:34;;;;;;;4.38;2.22;;;;;;;19.21;44.70;100510.53;4920663;28;97247;-83
2023/01/01 10:50:06;;;;;;;7.00;2.60;;;;;;;19.33;44.27;100516.00;4922948;28;99429;-91
2023/01/01 10:52:39;;;;;;;4.57;2.72;;;;;;;19.29;44.36;100502.06;4944134;28;100853;-91
2023/01/01 10:55:18;;;;;;;3.42;2.42;;;;;;;19.41;44.28;100501.22;4930580;28;101075;-94
2023/01/01 10:57:44;;;;;;;8.48;3.63;;;;;;;19.48;44.09;100503.44;4934678;28;96795;-93
2023/01/01 11:00:22;;;;;;;3.60;2.65;;;;;;;19.47;43.72;100496.44;4929668;28;96954;-91
2023/01/01 11:03:09;;;;;;;5.60;3.05;;;;;;;19.41;44.31;100489.72;4921386;28;101539;-93
2023/01/01 11:05:34;;;;;;;5.35;3.10;;;;;;;19.44;44.28;100479.72;4935116;28;97960;-92
2023/01/01 11:08:00;;;;;;;5.32;2.88;;;;;;;19.31;44.22;100478.81;4926380;28;98072;-91
2023/01/01 11:10:27;;;;;;;7.57;2.60;;;;;;;19.38;44.22;100492.59;4900592;28;97065;-93
2023/01/01 11:12:53;;;;;;;6.65;3.10;;;;;;;19.30;43.98;100482.44;4914005;28;100109;-90
2023/01/01 11:15:22;;;;;;;7.32;3.05;;;;;;;19.19;44.54;100496.47;4885266;28;99813;-91
2023/01/01 11:17:48;;;;;;;6.10;3.03;;;;;;;19.12;44.76;100489.03;4943901;28;97238;-82
2023/01/01 11:20:18;;;;;;;4.70;2.60;;;;;;;19.07;44.74;100494.63;4932822;28;96834;-82
2023/01/01 11:22:47;;;;;;;3.58;2.85;;;;;;;19.05;45.02;100477.06;4926114;28;101293;-83
2023/01/01 11:25:19;;;;;;;4.00;2.78;;;;;;;19.05;44.90;100493.88;4920771;28;99049;-82
2023/01/01 11:27:45;;;;;;;5.07;2.90;;;;;;;18.98;44.93;100485.47;4921971;28;96959;-82
2023/01/01 11:30:19;;;;;;;4.40;3.00;;;;;;;19.09;45.05;100494.56;4921803;28;96989;-88
2023/01/01 11:32:46;;;;;;;5.63;3.13;;;;;;;19.05;45.70;100485.06;4917423;28;101641;-86